Airfield :
LOGIN :

Register | Disclaimer

   EN    FR    IT 

 










Legend :    VFR   Marginal VFR   IFR   Intensive IFR   Very Intensive IFR
Visi :
Ceiling :
>= 8 km
>= 3000ft
5 to 8 km
1000 to 3000 ft
1500m to 5 km
500 to 1000 ft
800 to 1500m
200 to 500 ft
< 800m
< 200 ft
Symbols :   Thunderstorms  Fog  Heavy snow  Heavy precipitations  Wind > 20 kt
SIGMETs :     Misc.  Thunderstorms  Icing  Turbulence  Mountain Waves  Volcanic Ashes







- Airport Elevation : 123 ft
- IATA code : BLQ


LIPE - Bologna Guglielmo Marconi

CURRENT METAR :
  • 201850Z 21004KT 170V230 CAVOK 05/03 Q1019

EXPIRED METARs :
  • 201820Z 21003KT 6000 MIFG NSC 04/04 Q1019
  • 201750Z VRB02KT 3000 MIFG NSC 04/04 Q1019
  • 201720Z 00000KT 3000 R12/0350V1300U MIFG NSC 05/04 Q1019
  • 201650Z 13003KT 3000 R12/1200VP2000U MIFG NSC 05/04 Q1018
  • 201620Z 00000KT 3000 BR NSC 06/05 Q1019

TAF TAF LIPE
Valid from the 20 at 18:00 until the 21 at 18:00 UTC


201700Z 2018/2118 VRB05KT 3000 BR NSC
TEMPO 2100/2106 0800 BCFG
BECMG 2106/2109 6000
No reported NOTAMs for that airfield.



MET'MAP, your aeronautical weather chart ! - Copyright ORBIFLY December 2007 - Disclaimer

ORBIFLY MET'MAP TEAM :

Programming & Development : Alexandra Zaïnal
Concept & Development : Baudouin d'Aumeries
Co-Development & Prog : Marc-Olivier Méhu
Technical & hardware support : Manuel Goepfert

Contact : metmap@orbifly.com




SOURCES & CREDITS :

   NOAA